Time;durP1;ratioP1;P1;durP2;ratioP2;P2;SDS_P1;SDS_P2;PMS_P1;PMS_P2;Temp;Humidity;BMP_temperature;BMP_pressure;BME280_temperature;BME280_humidity;BME280_pressure;Samples;Min_cycle;Max_cycle;Signal;HPM_P1;HPM_P2
2023/11/03 00:02:15;;;;;;;0.60;0.60;;;3.50;99.90;;;;;;5112524;28;20210;-68
2023/11/03 00:04:41;;;;;;;0.60;0.60;;;3.50;99.90;;;;;;5112512;28;20268;-69
2023/11/03 00:07:08;;;;;;;0.47;0.47;;;3.40;99.90;;;;;;5112476;28;20237;-68
2023/11/03 00:09:37;;;;;;;0.82;0.82;;;3.40;99.90;;;;;;5111999;28;20206;-67
2023/11/03 00:12:03;;;;;;;0.60;0.60;;;3.50;99.90;;;;;;5112318;28;20605;-67
2023/11/03 00:14:33;;;;;;;0.70;0.70;;;3.50;99.90;;;;;;5112331;28;20195;-68
2023/11/03 00:16:59;;;;;;;0.60;0.60;;;3.50;99.90;;;;;;5112226;28;20837;-69
2023/11/03 00:19:25;;;;;;;0.52;0.52;;;3.50;99.90;;;;;;5112340;28;20236;-67
2023/11/03 00:21:55;;;;;;;0.70;0.70;;;3.50;99.90;;;;;;5112145;28;20227;-67
2023/11/03 00:24:23;;;;;;;0.50;0.50;;;3.60;99.90;;;;;;5112185;28;20290;-66
2023/11/03 00:26:48;;;;;;;0.60;0.60;;;3.60;99.90;;;;;;5112204;28;20550;-66
2023/11/03 00:29:15;;;;;;;0.60;0.60;;;3.50;99.90;;;;;;5093790;28;20199;-66
2023/11/03 00:32:15;;;;;;;0.50;0.50;;;3.50;99.90;;;;;;5090314;28;20279;-68
2023/11/03 00:34:40;;;;;;;0.60;0.60;;;3.60;99.90;;;;;;5072169;28;20223;-68
2023/11/03 00:37:07;;;;;;;0.50;0.50;;;3.60;99.90;;;;;;5109822;28;20570;-68
2023/11/03 00:39:33;;;;;;;0.57;0.57;;;3.50;99.90;;;;;;5112027;28;20216;-67
2023/11/03 00:41:58;;;;;;;0.50;0.50;;;3.60;99.90;;;;;;5112043;28;20749;-68
2023/11/03 00:44:25;;;;;;;0.47;0.47;;;3.60;99.90;;;;;;5111855;28;20199;-67
2023/11/03 00:46:51;;;;;;;0.57;0.57;;;3.60;99.90;;;;;;5111852;28;20234;-71
2023/11/03 00:49:18;;;;;;;0.80;0.80;;;3.60;99.90;;;;;;5112060;28;20476;-66
2023/11/03 00:51:44;;;;;;;0.50;0.50;;;3.60;99.90;;;;;;5111624;28;20293;-66
2023/11/03 00:54:10;;;;;;;0.60;0.60;;;3.60;99.90;;;;;;5111553;28;20282;-71
2023/11/03 00:56:36;;;;;;;0.50;0.50;;;3.60;99.90;;;;;;5089492;28;20332;-68
2023/11/03 00:59:05;;;;;;;0.50;0.50;;;3.60;99.90;;;;;;5090804;28;20668;-67
2023/11/03 01:01:31;;;;;;;0.55;0.55;;;3.60;99.90;;;;;;5091691;28;20228;-67
2023/11/03 01:03:57;;;;;;;0.50;0.50;;;3.60;99.90;;;;;;5090994;28;20818;-67
2023/11/03 01:06:23;;;;;;;0.60;0.60;;;3.60;99.90;;;;;;5078507;28;20268;-67
2023/11/03 01:08:52;;;;;;;0.50;0.50;;;3.60;99.90;;;;;;5070879;28;20740;-66
2023/11/03 01:11:19;;;;;;;0.50;0.50;;;3.60;99.90;;;;;;5070462;28;20616;-67
2023/11/03 01:13:45;;;;;;;0.50;0.50;;;3.60;99.90;;;;;;5070862;28;20207;-67
2023/11/03 01:16:12;;;;;;;0.75;0.75;;;3.60;99.90;;;;;;5070709;28;20192;-67
2023/11/03 01:18:42;;;;;;;0.52;0.52;;;3.60;99.90;;;;;;5070512;28;20249;-67
2023/11/03 01:21:12;;;;;;;1.02;0.85;;;3.60;99.90;;;;;;5070874;28;20565;-67
2023/11/03 01:23:41;;;;;;;0.88;0.88;;;3.60;99.90;;;;;;5070390;28;20246;-67
2023/11/03 01:26:08;;;;;;;0.60;0.60;;;3.60;99.90;;;;;;5070340;28;20216;-68
2023/11/03 01:28:35;;;;;;;0.70;0.70;;;3.60;99.90;;;;;;5079283;28;20550;-66
2023/11/03 01:31:02;;;;;;;0.60;0.60;;;3.60;99.90;;;;;;5090737;28;20556;-68
2023/11/03 01:33:28;;;;;;;0.52;0.52;;;3.60;99.90;;;;;;5090422;28;20200;-67
2023/11/03 01:35:53;;;;;;;0.57;0.57;;;3.60;99.90;;;;;;5090686;28;20192;-66
2023/11/03 01:38:19;;;;;;;0.55;0.55;;;3.60;99.90;;;;;;5090461;28;20540;-68
2023/11/03 01:40:45;;;;;;;0.60;0.60;;;3.60;99.90;;;;;;5090464;28;20200;-66
2023/11/03 01:43:11;;;;;;;0.63;0.63;;;3.70;99.90;;;;;;5091050;28;20196;-71
2023/11/03 01:45:37;;;;;;;0.50;0.50;;;3.70;99.90;;;;;;5090118;28;20744;-67
2023/11/03 01:48:03;;;;;;;0.50;0.50;;;3.70;99.90;;;;;;5089932;28;20188;-67
2023/11/03 01:50:29;;;;;;;0.50;0.50;;;3.70;99.90;;;;;;5090027;28;20266;-67
2023/11/03 01:52:55;;;;;;;0.60;0.60;;;3.70;99.90;;;;;;5089933;28;20192;-67
2023/11/03 01:55:22;;;;;;;0.50;0.50;;;3.70;99.90;;;;;;5089679;28;20706;-69
2023/11/03 01:57:48;;;;;;;0.70;0.70;;;3.70;99.90;;;;;;5071960;28;20608;-66
2023/11/03 02:00:14;;;;;;;0.50;0.50;;;3.80;99.90;;;;;;5090111;28;20669;-68
2023/11/03 02:02:40;;;;;;;0.60;0.60;;;3.70;99.90;;;;;;5089820;28;20210;-68
2023/11/03 02:05:06;;;;;;;0.50;0.50;;;3.70;99.90;;;;;;5089740;28;20578;-67
2023/11/03 02:07:33;;;;;;;0.60;0.60;;;3.70;99.90;;;;;;5089677;28;20226;-67
2023/11/03 02:09:59;;;;;;;0.60;0.60;;;3.70;99.90;;;;;;5089844;28;20666;-67
2023/11/03 02:12:26;;;;;;;0.60;0.60;;;3.80;99.90;;;;;;5071229;28;20192;-67
2023/11/03 02:14:52;;;;;;;0.50;0.50;;;3.70;99.90;;;;;;5089897;28;20196;-68
2023/11/03 02:17:21;;;;;;;0.52;0.52;;;3.70;99.90;;;;;;5089578;28;20725;-67
2023/11/03 02:19:47;;;;;;;0.50;0.50;;;3.70;99.90;;;;;;5089579;28;20241;-66
2023/11/03 02:22:13;;;;;;;0.60;0.60;;;3.70;99.90;;;;;;5089626;28;20658;-66
2023/11/03 02:24:38;;;;;;;0.60;0.60;;;3.80;99.90;;;;;;5081973;28;20209;-67
2023/11/03 02:27:04;;;;;;;0.55;0.55;;;3.70;99.90;;;;;;5069443;28;20729;-68
2023/11/03 02:29:30;;;;;;;0.50;0.50;;;3.80;99.90;;;;;;5086026;28;20212;-67
2023/11/03 02:31:55;;;;;;;0.60;0.60;;;3.80;99.90;;;;;;5088852;28;20223;-67
2023/11/03 02:34:21;;;;;;;0.57;0.57;;;3.80;99.90;;;;;;5088219;28;20231;-67
2023/11/03 02:36:47;;;;;;;0.60;0.60;;;3.80;99.90;;;;;;5088504;28;20233;-66
2023/11/03 02:39:12;;;;;;;0.60;0.60;;;3.80;99.90;;;;;;5088542;28;20197;-66
2023/11/03 02:41:38;;;;;;;0.50;0.50;;;3.90;99.90;;;;;;5088366;28;20294;-69
2023/11/03 02:44:04;;;;;;;0.50;0.50;;;3.90;99.90;;;;;;5075593;28;20567;-66
2023/11/03 02:46:30;;;;;;;0.50;0.50;;;3.90;99.90;;;;;;5068029;28;20660;-68
2023/11/03 02:48:56;;;;;;;0.50;0.50;;;3.90;99.90;;;;;;5068441;28;20191;-68
2023/11/03 02:51:22;;;;;;;0.70;0.70;;;3.90;99.90;;;;;;5068750;28;20300;-69
2023/11/03 02:53:47;;;;;;;0.60;0.60;;;3.90;99.90;;;;;;5068963;28;20185;-69
2023/11/03 02:56:27;;;;;;;0.60;0.60;;;4.00;99.90;;;;;;5083521;28;20236;-69
2023/11/03 02:58:53;;;;;;;0.68;0.68;;;3.90;99.90;;;;;;5100743;28;20295;-69
2023/11/03 03:01:31;;;;;;;0.60;0.60;;;3.90;99.90;;;;;;5109563;28;20187;-69
2023/11/03 03:03:57;;;;;;;0.63;0.63;;;3.90;99.90;;;;;;5109722;28;20206;-69
2023/11/03 03:06:23;;;;;;;0.63;0.63;;;3.90;99.90;;;;;;5090724;28;20244;-69
2023/11/03 03:08:49;;;;;;;0.70;0.70;;;3.90;99.90;;;;;;5091173;28;20251;-68
2023/11/03 03:11:15;;;;;;;0.60;0.60;;;3.90;99.90;;;;;;5109272;28;20213;-69
2023/11/03 03:13:44;;;;;;;0.70;0.70;;;3.90;99.90;;;;;;5109473;28;20195;-69
2023/11/03 03:16:10;;;;;;;0.52;0.52;;;4.00;99.90;;;;;;5090914;28;20283;-68
2023/11/03 03:18:36;;;;;;;0.60;0.60;;;4.00;99.90;;;;;;5109129;28;20282;-69
2023/11/03 03:21:03;;;;;;;0.77;0.77;;;4.00;99.90;;;;;;5100317;28;20196;-68
2023/11/03 03:23:28;;;;;;;0.60;0.60;;;4.00;99.90;;;;;;5088850;28;20560;-69
2023/11/03 03:25:54;;;;;;;0.70;0.70;;;4.00;99.90;;;;;;5088207;28;20211;-69
2023/11/03 03:28:20;;;;;;;0.80;0.80;;;4.00;99.90;;;;;;5090262;28;20272;-69
2023/11/03 03:30:45;;;;;;;0.60;0.60;;;4.00;99.90;;;;;;5108498;28;20292;-70
2023/11/03 03:33:11;;;;;;;0.70;0.70;;;4.10;99.90;;;;;;5108572;28;20712;-69
2023/11/03 03:35:37;;;;;;;0.50;0.50;;;4.10;99.90;;;;;;5108281;28;20199;-69
2023/11/03 03:38:02;;;;;;;0.70;0.70;;;4.10;99.90;;;;;;5108624;28;20234;-69
2023/11/03 03:40:28;;;;;;;0.70;0.70;;;4.20;99.90;;;;;;5108656;28;20199;-69
2023/11/03 03:42:55;;;;;;;0.63;0.63;;;4.10;99.90;;;;;;5109159;28;20191;-69
2023/11/03 03:45:21;;;;;;;0.60;0.60;;;4.20;99.90;;;;;;5109359;28;20199;-69
2023/11/03 03:47:46;;;;;;;0.70;0.70;;;4.10;99.90;;;;;;5086607;28;20200;-70
2023/11/03 03:50:12;;;;;;;0.60;0.60;;;4.20;99.90;;;;;;5074006;28;20283;-69
2023/11/03 03:52:38;;;;;;;0.50;0.50;;;4.10;99.90;;;;;;5092260;28;20621;-69
2023/11/03 03:55:04;;;;;;;0.60;0.60;;;4.10;99.90;;;;;;5079669;28;20216;-70
2023/11/03 03:57:29;;;;;;;0.70;0.70;;;4.10;99.90;;;;;;5091616;28;20692;-70
2023/11/03 03:59:56;;;;;;;0.70;0.70;;;4.30;99.90;;;;;;5092497;28;20184;-69
2023/11/03 04:02:21;;;;;;;0.70;0.70;;;4.30;99.90;;;;;;5065031;28;20204;-71
2023/11/03 04:04:47;;;;;;;0.60;0.60;;;4.40;99.90;;;;;;5090846;28;20208;-72
2023/11/03 04:07:13;;;;;;;1.00;1.00;;;4.40;99.90;;;;;;5092107;28;20242;-72
2023/11/03 04:09:39;;;;;;;0.52;0.52;;;4.40;99.90;;;;;;5092172;28;20200;-71
2023/11/03 04:12:05;;;;;;;0.60;0.60;;;4.50;99.90;;;;;;5092514;28;20655;-72
2023/11/03 04:14:30;;;;;;;0.60;0.60;;;4.50;99.90;;;;;;5092114;28;20242;-71
2023/11/03 04:16:56;;;;;;;0.70;0.70;;;4.50;99.90;;;;;;5085966;28;20220;-71
2023/11/03 04:19:22;;;;;;;0.70;0.70;;;4.50;99.90;;;;;;5071562;28;20276;-71
2023/11/03 04:21:48;;;;;;;0.50;0.50;;;4.40;99.90;;;;;;5086714;28;20261;-71
2023/11/03 04:24:13;;;;;;;0.52;0.52;;;4.40;99.90;;;;;;5091743;28;20203;-71
2023/11/03 04:26:39;;;;;;;0.50;0.50;;;4.40;99.90;;;;;;5091227;28;20646;-71
2023/11/03 04:29:05;;;;;;;0.60;0.60;;;4.40;99.90;;;;;;5090892;28;20204;-72
2023/11/03 04:31:31;;;;;;;0.60;0.60;;;4.40;99.90;;;;;;5090707;28;20574;-71
2023/11/03 04:33:56;;;;;;;0.60;0.60;;;4.50;99.90;;;;;;5090979;28;20185;-71
2023/11/03 04:36:22;;;;;;;0.60;0.60;;;4.50;99.90;;;;;;5090339;28;20666;-71
2023/11/03 04:38:48;;;;;;;0.65;0.65;;;4.40;99.90;;;;;;5090694;28;20206;-70
2023/11/03 04:41:14;;;;;;;1.02;0.95;;;4.40;99.90;;;;;;5090752;28;20196;-72
2023/11/03 04:43:40;;;;;;;0.80;0.80;;;4.50;99.90;;;;;;5090107;28;20257;-71
2023/11/03 04:46:08;;;;;;;0.60;0.60;;;4.40;99.90;;;;;;5090694;28;20196;-71
2023/11/03 04:48:34;;;;;;;1.58;1.48;;;4.40;99.90;;;;;;5090174;28;20184;-72
2023/11/03 04:51:00;;;;;;;0.75;0.75;;;4.40;99.90;;;;;;5090822;28;20184;-72
2023/11/03 04:53:25;;;;;;;0.80;0.80;;;4.40;99.90;;;;;;5090566;28;20659;-71
2023/11/03 04:55:51;;;;;;;1.10;1.00;;;4.50;99.90;;;;;;5080026;28;20702;-71
2023/11/03 04:58:17;;;;;;;0.70;0.70;;;4.50;99.90;;;;;;5088811;28;20204;-71
2023/11/03 05:00:45;;;;;;;1.05;0.95;;;4.50;99.90;;;;;;5090055;28;20818;-71
2023/11/03 05:03:11;;;;;;;0.70;0.70;;;4.50;99.90;;;;;;5080633;28;20200;-72
2023/11/03 05:05:37;;;;;;;0.70;0.70;;;4.50;99.90;;;;;;5075267;28;20557;-72
2023/11/03 05:08:04;;;;;;;0.65;0.65;;;4.50;99.90;;;;;;5090504;28;20207;-71
2023/11/03 05:10:30;;;;;;;0.63;0.63;;;4.60;99.90;;;;;;5090665;28;20678;-72
2023/11/03 05:12:55;;;;;;;0.70;0.70;;;4.60;99.90;;;;;;5090672;28;20207;-71
2023/11/03 05:15:21;;;;;;;0.60;0.60;;;4.60;99.90;;;;;;5089822;28;20192;-71
2023/11/03 05:17:47;;;;;;;0.57;0.57;;;4.60;99.90;;;;;;5089201;28;20265;-71
2023/11/03 05:20:13;;;;;;;1.10;1.00;;;4.60;99.90;;;;;;5090128;28;20196;-71
2023/11/03 05:22:39;;;;;;;1.15;1.05;;;4.60;99.90;;;;;;5089762;28;20291;-71
2023/11/03 05:25:07;;;;;;;0.70;0.70;;;4.60;99.90;;;;;;5089659;28;20238;-71
2023/11/03 05:27:33;;;;;;;0.60;0.60;;;4.60;99.90;;;;;;5088060;28;20202;-71
2023/11/03 05:29:58;;;;;;;0.65;0.65;;;4.60;99.90;;;;;;5089100;28;20300;-71
2023/11/03 05:32:25;;;;;;;0.52;0.52;;;4.60;99.90;;;;;;5090326;28;20188;-71
2023/11/03 05:34:50;;;;;;;0.45;0.45;;;4.60;99.90;;;;;;5090460;28;20675;-71
2023/11/03 05:37:16;;;;;;;0.50;0.50;;;4.60;99.90;;;;;;5090636;28;20210;-71
2023/11/03 05:39:42;;;;;;;0.60;0.60;;;4.60;99.90;;;;;;5090074;28;20320;-71
2023/11/03 05:42:07;;;;;;;0.52;0.52;;;4.70;99.90;;;;;;5090604;28;20192;-71
2023/11/03 05:44:33;;;;;;;0.50;0.50;;;4.60;99.90;;;;;;5090188;28;20651;-71
2023/11/03 05:47:02;;;;;;;0.73;0.73;;;4.60;99.90;;;;;;5090188;28;20738;-71
2023/11/03 05:49:28;;;;;;;0.68;0.68;;;4.60;99.90;;;;;;5090077;28;20196;-71
2023/11/03 05:51:54;;;;;;;0.50;0.50;;;4.60;99.90;;;;;;5088732;28;20243;-71
2023/11/03 05:54:20;;;;;;;0.50;0.50;;;4.60;99.90;;;;;;5089989;28;20200;-72
2023/11/03 05:56:46;;;;;;;0.60;0.60;;;4.60;99.90;;;;;;5109267;28;20231;-71
2023/11/03 05:59:11;;;;;;;0.50;0.50;;;4.50;99.90;;;;;;5110394;28;20192;-71
2023/11/03 06:01:37;;;;;;;0.70;0.70;;;4.50;99.90;;;;;;5091923;28;20195;-71
2023/11/03 06:04:03;;;;;;;0.50;0.50;;;4.50;99.90;;;;;;5110097;28;20187;-71
2023/11/03 06:06:29;;;;;;;0.60;0.60;;;4.60;99.90;;;;;;5109879;28;20206;-71
2023/11/03 06:08:55;;;;;;;0.60;0.60;;;4.50;99.90;;;;;;5107724;28;20643;-70
2023/11/03 06:11:22;;;;;;;0.70;0.70;;;4.50;99.90;;;;;;5089698;28;20192;-72
2023/11/03 06:13:48;;;;;;;0.50;0.50;;;4.50;99.90;;;;;;5100606;28;20761;-71
2023/11/03 06:16:14;;;;;;;0.60;0.60;;;4.50;99.90;;;;;;5091463;28;20288;-70
2023/11/03 06:18:41;;;;;;;0.50;0.50;;;4.60;99.90;;;;;;5109623;28;20231;-71
2023/11/03 06:21:07;;;;;;;0.50;0.50;;;4.60;99.90;;;;;;5109813;28;20207;-72
2023/11/03 06:23:33;;;;;;;0.55;0.55;;;4.60;99.90;;;;;;5109854;28;20206;-73
2023/11/03 06:25:58;;;;;;;0.60;0.60;;;4.60;99.90;;;;;;5109521;28;20203;-72
2023/11/03 06:28:24;;;;;;;0.80;0.80;;;4.50;99.90;;;;;;5109502;28;20219;-72
2023/11/03 06:30:50;;;;;;;0.95;0.95;;;4.50;99.90;;;;;;5109722;28;20662;-72
2023/11/03 06:33:16;;;;;;;0.60;0.60;;;4.50;99.90;;;;;;5109722;28;20222;-72
2023/11/03 06:35:41;;;;;;;0.70;0.70;;;4.50;99.90;;;;;;5108774;28;20572;-72
2023/11/03 06:38:07;;;;;;;0.50;0.50;;;4.50;99.90;;;;;;5089353;28;20199;-72
2023/11/03 06:40:33;;;;;;;0.60;0.60;;;4.50;99.90;;;;;;5089131;28;20679;-71
2023/11/03 06:42:59;;;;;;;0.57;0.57;;;4.60;99.90;;;;;;5074978;28;20594;-71
2023/11/03 06:45:25;;;;;;;0.70;0.70;;;4.50;99.90;;;;;;5109586;28;20204;-72
2023/11/03 06:47:50;;;;;;;0.52;0.52;;;4.50;99.90;;;;;;5109523;28;20202;-72
2023/11/03 06:50:16;;;;;;;0.50;0.50;;;4.50;99.90;;;;;;5109552;28;20216;-70
2023/11/03 06:52:42;;;;;;;0.60;0.60;;;4.50;99.90;;;;;;5109546;28;20634;-72
2023/11/03 06:55:08;;;;;;;0.60;0.60;;;4.60;99.90;;;;;;5109194;28;20227;-73
2023/11/03 06:57:35;;;;;;;0.60;0.60;;;4.60;99.90;;;;;;5109115;28;20221;-71
2023/11/03 07:00:00;;;;;;;0.60;0.60;;;4.60;99.90;;;;;;5109351;28;20282;-72
2023/11/03 07:02:26;;;;;;;0.60;0.60;;;4.60;99.90;;;;;;5090800;28;20306;-71
2023/11/03 07:04:52;;;;;;;0.60;0.60;;;4.60;99.90;;;;;;5109296;28;20214;-71
2023/11/03 07:07:18;;;;;;;0.63;0.63;;;4.60;99.90;;;;;;5088835;28;20207;-71
2023/11/03 07:09:44;;;;;;;1.48;1.25;;;4.70;99.90;;;;;;5097383;28;20637;-74
2023/11/03 07:12:10;;;;;;;2.83;2.20;;;4.80;99.90;;;;;;5109312;28;20195;-72
2023/11/03 07:14:36;;;;;;;1.35;1.25;;;4.70;99.90;;;;;;5109063;28;20278;-71
2023/11/03 07:17:02;;;;;;;0.88;0.88;;;4.70;99.90;;;;;;5109211;28;20275;-71
2023/11/03 07:19:28;;;;;;;0.70;0.70;;;4.70;99.90;;;;;;5110436;28;20199;-72
2023/11/03 07:21:55;;;;;;;0.57;0.57;;;4.70;99.90;;;;;;5113633;28;20262;-72
2023/11/03 07:24:23;;;;;;;0.52;0.52;;;4.70;99.90;;;;;;5113071;28;20716;-71
2023/11/03 07:26:50;;;;;;;0.60;0.60;;;4.70;99.90;;;;;;5113108;28;20192;-71
2023/11/03 07:29:19;;;;;;;0.80;0.80;;;4.70;99.90;;;;;;5094776;28;20583;-71
2023/11/03 07:31:45;;;;;;;1.00;0.98;;;4.70;99.90;;;;;;5093936;28;20234;-70
2023/11/03 07:34:11;;;;;;;1.33;1.05;;;4.80;99.90;;;;;;5093810;28;20743;-70
2023/11/03 07:36:39;;;;;;;0.80;0.80;;;4.70;99.90;;;;;;5112287;28;20218;-70
2023/11/03 07:39:06;;;;;;;0.60;0.60;;;4.70;99.90;;;;;;5112225;28;20187;-70
2023/11/03 07:41:35;;;;;;;1.42;1.33;;;4.70;99.90;;;;;;5093742;28;20195;-70
2023/11/03 07:44:01;;;;;;;1.15;1.05;;;4.80;99.90;;;;;;5112316;28;20199;-70
2023/11/03 07:46:30;;;;;;;0.57;0.57;;;4.80;99.90;;;;;;5093402;28;20226;-70
2023/11/03 07:48:57;;;;;;;0.60;0.60;;;4.80;99.90;;;;;;5112313;28;20233;-70
2023/11/03 07:51:24;;;;;;;0.70;0.70;;;4.70;99.90;;;;;;5112828;28;20199;-70
2023/11/03 07:53:50;;;;;;;0.55;0.55;;;4.80;99.90;;;;;;5094447;28;20196;-70
2023/11/03 07:56:16;;;;;;;0.60;0.60;;;4.80;99.90;;;;;;5112616;28;20238;-70
2023/11/03 07:58:42;;;;;;;0.60;0.60;;;4.80;99.90;;;;;;5094330;28;20286;-70
2023/11/03 08:01:09;;;;;;;2.03;1.88;;;4.80;99.90;;;;;;5112732;28;20377;-70
2023/11/03 08:03:36;;;;;;;2.55;2.35;;;4.80;99.90;;;;;;5092063;28;20319;-70
2023/11/03 08:06:02;;;;;;;0.70;0.70;;;4.80;99.90;;;;;;5101018;28;20298;-70
2023/11/03 08:08:28;;;;;;;0.70;0.70;;;4.80;99.90;;;;;;5112475;28;20187;-70
2023/11/03 08:10:54;;;;;;;0.63;0.63;;;4.80;99.90;;;;;;5112514;28;20188;-70
2023/11/03 08:13:23;;;;;;;0.70;0.70;;;4.90;99.90;;;;;;5112044;28;20211;-70
2023/11/03 08:15:50;;;;;;;0.50;0.50;;;4.90;99.90;;;;;;5093724;28;20238;-70
2023/11/03 08:18:16;;;;;;;0.60;0.60;;;4.90;99.90;;;;;;5112045;28;20203;-70
2023/11/03 08:20:42;;;;;;;0.50;0.50;;;4.90;99.90;;;;;;5111934;28;20629;-71
2023/11/03 08:23:09;;;;;;;0.60;0.60;;;4.90;99.90;;;;;;5093728;28;20278;-70
2023/11/03 08:25:35;;;;;;;0.57;0.57;;;4.90;99.90;;;;;;5111923;28;20925;-70
2023/11/03 08:28:01;;;;;;;0.60;0.60;;;4.90;99.90;;;;;;5112007;28;20195;-70
2023/11/03 08:30:27;;;;;;;0.60;0.60;;;4.90;99.90;;;;;;5111640;28;20219;-70
2023/11/03 08:32:54;;;;;;;0.60;0.60;;;5.00;99.90;;;;;;5111235;28;20659;-70
2023/11/03 08:35:20;;;;;;;0.52;0.52;;;4.90;99.90;;;;;;5111522;28;21782;-70
2023/11/03 08:37:47;;;;;;;0.60;0.60;;;4.90;99.90;;;;;;5111810;28;20203;-70
2023/11/03 08:40:16;;;;;;;0.50;0.50;;;5.00;99.90;;;;;;5111895;28;20716;-70
2023/11/03 08:42:45;;;;;;;1.20;1.10;;;5.00;99.90;;;;;;5111731;28;20219;-67
2023/11/03 08:45:11;;;;;;;0.60;0.60;;;5.00;99.90;;;;;;5111614;28;20234;-66
2023/11/03 08:47:41;;;;;;;0.70;0.70;;;5.00;99.90;;;;;;5093197;28;20256;-68
2023/11/03 08:50:16;;;;;;;0.60;0.60;;;5.00;99.90;;;;;;5111727;28;20192;-66
2023/11/03 08:52:44;;;;;;;0.60;0.60;;;5.10;99.90;;;;;;5111013;28;20191;-67
2023/11/03 08:55:11;;;;;;;0.50;0.50;;;5.10;99.90;;;;;;5110928;28;20595;-66
2023/11/03 08:57:39;;;;;;;0.55;0.55;;;5.10;99.90;;;;;;5109299;28;20584;-67
2023/11/03 09:00:15;;;;;;;0.70;0.70;;;5.20;99.90;;;;;;5091067;28;20733;-67
2023/11/03 09:02:48;;;;;;;0.50;0.50;;;5.20;99.90;;;;;;5103210;28;20203;-67
2023/11/03 09:05:14;;;;;;;0.47;0.47;;;5.20;99.90;;;;;;5111190;28;20273;-68
2023/11/03 09:07:42;;;;;;;0.60;0.60;;;5.20;99.90;;;;;;5111262;28;20195;-68
2023/11/03 09:10:12;;;;;;;0.60;0.60;;;5.20;99.90;;;;;;5111232;28;20740;-68
2023/11/03 09:12:40;;;;;;;0.47;0.47;;;5.30;99.90;;;;;;5110975;28;20273;-69
2023/11/03 09:15:09;;;;;;;0.50;0.50;;;5.30;99.90;;;;;;5111125;28;20542;-67
2023/11/03 09:17:36;;;;;;;0.50;0.50;;;5.30;99.90;;;;;;5110684;28;20221;-68
2023/11/03 09:20:06;;;;;;;0.60;0.60;;;5.40;99.90;;;;;;5111004;28;20199;-67
2023/11/03 09:22:32;;;;;;;0.52;0.52;;;5.40;99.90;;;;;;5110768;28;20223;-67
2023/11/03 09:25:00;;;;;;;0.63;0.63;;;5.40;99.90;;;;;;5110652;28;20242;-68
2023/11/03 09:27:26;;;;;;;0.55;0.55;;;5.40;99.90;;;;;;5110670;28;20223;-68
2023/11/03 09:29:52;;;;;;;0.60;0.60;;;5.50;99.90;;;;;;5110940;28;20184;-70
2023/11/03 09:32:18;;;;;;;0.57;0.57;;;5.50;99.90;;;;;;5110928;28;20200;-68
2023/11/03 09:34:48;;;;;;;0.60;0.60;;;5.50;99.90;;;;;;5092452;28;20198;-69
2023/11/03 09:37:14;;;;;;;1.60;1.17;;;5.60;99.90;;;;;;5110720;28;20218;-70
2023/11/03 09:39:42;;;;;;;0.60;0.60;;;5.60;99.90;;;;;;5110466;28;20203;-68
2023/11/03 09:42:10;;;;;;;0.50;0.50;;;5.60;99.90;;;;;;5110691;28;20187;-68
2023/11/03 09:44:37;;;;;;;0.50;0.50;;;5.60;99.90;;;;;;5109544;28;20640;-68
2023/11/03 09:47:05;;;;;;;0.68;0.68;;;5.60;99.90;;;;;;5110739;28;20837;-69
2023/11/03 09:49:31;;;;;;;0.50;0.50;;;5.60;99.90;;;;;;5110562;28;20198;-67
2023/11/03 09:52:05;;;;;;;0.68;0.68;;;5.70;99.90;;;;;;5110880;28;20198;-68
2023/11/03 09:54:32;;;;;;;0.60;0.60;;;5.70;99.90;;;;;;5109956;28;20690;-68
2023/11/03 09:57:01;;;;;;;0.70;0.70;;;5.70;99.90;;;;;;5110480;28;20652;-67
2023/11/03 09:59:26;;;;;;;0.55;0.55;;;5.70;99.90;;;;;;5110113;28;20575;-68
2023/11/03 10:01:53;;;;;;;0.60;0.60;;;5.80;99.90;;;;;;5110259;28;20192;-67
2023/11/03 10:04:21;;;;;;;0.60;0.60;;;5.70;99.90;;;;;;5110206;28;20225;-68
2023/11/03 10:06:47;;;;;;;0.60;0.60;;;5.80;99.90;;;;;;5109844;28;20196;-68
2023/11/03 10:09:16;;;;;;;0.55;0.55;;;5.70;99.90;;;;;;5110400;28;20198;-69
2023/11/03 10:11:43;;;;;;;0.70;0.70;;;5.70;99.90;;;;;;5110062;28;20191;-68
2023/11/03 10:14:09;;;;;;;0.52;0.52;;;5.70;99.90;;;;;;5110078;28;20195;-69
2023/11/03 10:16:35;;;;;;;0.60;0.60;;;5.80;99.90;;;;;;5110033;28;20203;-70
2023/11/03 10:19:03;;;;;;;0.60;0.60;;;5.80;99.90;;;;;;5109938;28;20417;-68
2023/11/03 10:21:29;;;;;;;0.52;0.52;;;5.80;99.90;;;;;;5109506;28;20544;-67
2023/11/03 10:23:57;;;;;;;0.50;0.50;;;5.80;99.90;;;;;;5109976;28;20336;-68
2023/11/03 10:26:22;;;;;;;0.60;0.60;;;5.90;99.90;;;;;;5109633;28;20203;-70
2023/11/03 10:28:48;;;;;;;0.57;0.57;;;5.90;99.90;;;;;;5109702;28;20199;-68
2023/11/03 10:31:14;;;;;;;0.70;0.70;;;5.90;99.90;;;;;;5110009;28;20681;-68
2023/11/03 10:33:41;;;;;;;0.70;0.70;;;5.80;99.90;;;;;;5109598;28;20187;-68
2023/11/03 10:36:08;;;;;;;0.60;0.60;;;5.80;99.90;;;;;;5109815;28;20210;-70
2023/11/03 10:38:34;;;;;;;0.60;0.60;;;5.90;99.90;;;;;;5109628;28;20190;-68
2023/11/03 10:41:01;;;;;;;0.50;0.50;;;5.90;99.90;;;;;;5109555;28;20548;-68
2023/11/03 10:43:29;;;;;;;0.60;0.60;;;5.90;99.90;;;;;;5109558;28;20203;-71
2023/11/03 10:46:33;;;;;;;0.52;0.52;;;5.90;99.90;;;;;;5091300;28;20294;-68
2023/11/03 10:49:14;;;;;;;0.47;0.47;;;6.00;99.90;;;;;;5094024;28;20223;-70
2023/11/03 10:51:51;;;;;;;0.50;0.50;;;5.90;99.90;;;;;;5094794;28;20203;-70
2023/11/03 10:54:17;;;;;;;0.63;0.63;;;5.90;99.90;;;;;;5093455;28;20582;-70
2023/11/03 10:56:44;;;;;;;0.60;0.60;;;6.00;99.90;;;;;;5109083;28;20662;-71
2023/11/03 10:59:11;;;;;;;0.60;0.60;;;5.90;99.90;;;;;;5109635;28;20218;-68
2023/11/03 11:01:48;;;;;;;0.60;0.60;;;5.90;99.90;;;;;;5109553;28;20195;-70
2023/11/03 11:04:21;;;;;;;0.70;0.70;;;5.90;99.90;;;;;;5091332;28;20306;-71
2023/11/03 11:07:05;;;;;;;0.60;0.60;;;6.00;99.90;;;;;;5109378;28;20197;-71
2023/11/03 11:09:44;;;;;;;0.47;0.47;;;6.00;99.90;;;;;;5109663;28;20179;-70
2023/11/03 11:12:10;;;;;;;0.68;0.68;;;6.00;99.90;;;;;;5109709;28;20730;-72
2023/11/03 11:14:40;;;;;;;0.50;0.50;;;6.00;99.90;;;;;;5109434;28;20192;-71
2023/11/03 11:17:11;;;;;;;0.75;0.75;;;6.10;99.90;;;;;;5109144;28;20191;-70
2023/11/03 11:19:50;;;;;;;0.60;0.60;;;6.10;99.90;;;;;;5090839;28;20195;-70
2023/11/03 11:22:19;;;;;;;0.60;0.60;;;6.10;99.90;;;;;;5109415;28;20237;-72
2023/11/03 11:24:46;;;;;;;0.65;0.65;;;6.00;99.90;;;;;;5109232;28;20802;-72
2023/11/03 11:27:17;;;;;;;0.60;0.60;;;6.00;99.90;;;;;;5090917;28;20219;-72
2023/11/03 11:29:43;;;;;;;0.80;0.80;;;6.10;99.90;;;;;;5109120;28;20237;-72
2023/11/03 11:32:11;;;;;;;0.52;0.52;;;6.10;99.90;;;;;;5109256;28;20690;-72
2023/11/03 11:34:40;;;;;;;0.60;0.60;;;6.10;99.90;;;;;;5090587;28;20195;-72
2023/11/03 11:37:27;;;;;;;1.00;1.00;;;6.10;99.90;;;;;;5096933;28;20196;-72
2023/11/03 11:39:54;;;;;;;0.70;0.70;;;6.10;99.90;;;;;;5089067;28;20216;-73
2023/11/03 11:42:22;;;;;;;0.70;0.70;;;6.10;99.90;;;;;;5070417;28;20196;-72
2023/11/03 11:44:54;;;;;;;0.70;0.70;;;6.10;99.90;;;;;;5088655;28;20691;-72
2023/11/03 11:47:25;;;;;;;0.90;0.90;;;6.00;99.90;;;;;;5079274;28;20198;-71
2023/11/03 11:49:56;;;;;;;0.52;0.52;;;6.00;99.90;;;;;;5090632;28;20192;-72
2023/11/03 11:52:26;;;;;;;0.70;0.70;;;6.10;99.90;;;;;;5090776;28;20629;-72
2023/11/03 11:54:57;;;;;;;0.80;0.80;;;6.10;99.90;;;;;;5108919;28;20330;-71
2023/11/03 11:57:27;;;;;;;0.57;0.57;;;6.10;99.90;;;;;;5090458;28;20594;-72
2023/11/03 11:59:56;;;;;;;0.57;0.57;;;6.20;99.90;;;;;;5108972;28;20191;-71
2023/11/03 12:02:23;;;;;;;0.50;0.50;;;6.10;99.90;;;;;;5090229;28;20195;-71
2023/11/03 12:04:54;;;;;;;0.60;0.60;;;6.20;99.90;;;;;;5108883;28;20207;-71
2023/11/03 12:07:24;;;;;;;0.52;0.52;;;6.20;99.90;;;;;;5110364;28;20199;-71
2023/11/03 12:09:53;;;;;;;0.50;0.50;;;6.20;99.90;;;;;;5112814;28;20546;-73
2023/11/03 12:12:26;;;;;;;0.50;0.50;;;6.20;99.90;;;;;;5112567;28;20725;-71
2023/11/03 12:14:52;;;;;;;0.70;0.70;;;6.20;99.90;;;;;;5112226;28;20200;-72
2023/11/03 12:17:22;;;;;;;0.70;0.70;;;6.20;99.90;;;;;;5112340;28;20199;-72
2023/11/03 12:19:51;;;;;;;0.60;0.60;;;6.20;99.90;;;;;;5112645;28;20574;-72
2023/11/03 12:22:19;;;;;;;0.55;0.55;;;6.10;99.90;;;;;;5093835;28;20191;-72
2023/11/03 12:24:49;;;;;;;0.60;0.60;;;6.10;99.90;;;;;;5093589;28;20219;-72
2023/11/03 12:27:16;;;;;;;0.80;0.80;;;6.10;99.90;;;;;;5111966;28;20196;-72
2023/11/03 12:29:44;;;;;;;0.50;0.50;;;6.10;99.90;;;;;;5112122;28;20698;-73
2023/11/03 12:32:09;;;;;;;1.08;1.08;;;6.20;99.90;;;;;;5112147;28;20276;-72
2023/11/03 12:34:38;;;;;;;0.68;0.68;;;6.20;99.90;;;;;;5093800;28;20251;-72
2023/11/03 12:37:04;;;;;;;0.57;0.57;;;6.20;99.90;;;;;;5093877;28;20188;-72
2023/11/03 12:39:45;;;;;;;0.50;0.50;;;6.30;99.90;;;;;;5111954;28;20192;-72
2023/11/03 12:42:11;;;;;;;0.50;0.50;;;6.20;99.90;;;;;;5112088;28;20191;-72
2023/11/03 12:44:56;;;;;;;0.60;0.60;;;6.20;99.90;;;;;;5093261;28;20736;-72
2023/11/03 12:47:44;;;;;;;0.70;0.70;;;6.20;99.90;;;;;;5093021;28;20238;-72
2023/11/03 12:50:24;;;;;;;0.60;0.60;;;6.30;99.90;;;;;;5111776;28;20195;-72
2023/11/03 12:52:50;;;;;;;0.70;0.70;;;6.30;99.90;;;;;;5111707;28;20184;-72
2023/11/03 12:55:20;;;;;;;0.70;0.70;;;6.30;99.90;;;;;;5111374;28;20231;-72
2023/11/03 12:57:46;;;;;;;0.57;0.57;;;6.30;99.90;;;;;;5092985;28;20298;-72
2023/11/03 13:00:15;;;;;;;0.65;0.65;;;6.20;99.90;;;;;;5111370;28;20678;-73